Airfield :
LOGIN :

Register | Disclaimer

   EN    FR    IT 

 










Legend :    VFR   Marginal VFR   IFR   Intensive IFR   Very Intensive IFR
Visi :
Ceiling :
>= 8 km
>= 3000ft
5 to 8 km
1000 to 3000 ft
1500m to 5 km
500 to 1000 ft
800 to 1500m
200 to 500 ft
< 800m
< 200 ft
Symbols :   Thunderstorms  Fog  Heavy snow  Heavy precipitations  Wind > 20 kt
SIGMETs :     Misc.  Thunderstorms  Icing  Turbulence  Mountain Waves  Volcanic Ashes







- Airport Elevation : 306 ft
- IATA code : EMA
- Download approach charts


EGNX - Nottingham East Midlands

CURRENT METAR :
  • 270250Z 26006KT CAVOK 01/M01 Q1020

EXPIRED METARs :
  • 270220Z 25007KT CAVOK 02/M00 Q1020
  • 270150Z 24005KT CAVOK 02/00 Q1020
  • 270120Z 26007KT CAVOK 02/00 Q1020
  • 270050Z 25007KT CAVOK 02/M00 Q1020
  • 270020Z 25006KT CAVOK 02/00 Q1020

TAF TAF EGNX
Valid from the 27 at 00:00 until the 28 at 00:00 UTC


262257Z 2700/2724 22004KT 9999 SCT045
BECMG 2706/2709 28012KT
TEMPO 2710/2721 6000 SHRA
PROB30
TEMPO 2717/2721 4000 +SHRA BKN014
BECMG 2718/2721 03008KT
ATIS : +44 1332 852 852 (ext 3201)
No reported NOTAMs for that airfield.



MET'MAP, your aeronautical weather chart ! - Copyright ORBIFLY December 2007 - Disclaimer

ORBIFLY MET'MAP TEAM :

Programming & Development : Alexandra Zaïnal
Concept & Development : Baudouin d'Aumeries
Co-Development & Prog : Marc-Olivier Méhu
Technical & hardware support : Manuel Goepfert

Contact : metmap@orbifly.com




SOURCES & CREDITS :

   NOAA